sensor_id;sensor_type;location;lat;lon;timestamp;P1;durP1;ratioP1;P2;durP2;ratioP2
37169;SDS011;23062;13.952;100.608;2023-05-24T00:00:48;27.00;;;20.00;;
37169;SDS011;23062;13.952;100.608;2023-05-24T00:05:16;27.00;;;21.00;;
37169;SDS011;23062;13.952;100.608;2023-05-24T00:09:43;28.00;;;22.00;;
37169;SDS011;23062;13.952;100.608;2023-05-24T00:14:09;26.00;;;20.00;;
37169;SDS011;23062;13.952;100.608;2023-05-24T00:18:38;31.00;;;22.00;;
37169;SDS011;23062;13.952;100.608;2023-05-24T00:23:12;27.00;;;20.00;;
37169;SDS011;23062;13.952;100.608;2023-05-24T00:27:43;28.00;;;21.00;;
37169;SDS011;23062;13.952;100.608;2023-05-24T00:32:17;29.00;;;21.00;;
37169;SDS011;23062;13.952;100.608;2023-05-24T00:36:50;28.00;;;20.00;;
37169;SDS011;23062;13.952;100.608;2023-05-24T00:41:23;28.00;;;21.00;;
37169;SDS011;23062;13.952;100.608;2023-05-24T00:50:45;24.00;;;19.00;;
37169;SDS011;23062;13.952;100.608;2023-05-24T00:55:11;23.00;;;17.00;;
37169;SDS011;23062;13.952;100.608;2023-05-24T00:59:36;23.00;;;16.00;;
37169;SDS011;23062;13.952;100.608;2023-05-24T01:04:01;25.00;;;18.00;;
37169;SDS011;23062;13.952;100.608;2023-05-24T01:13:34;21.00;;;16.00;;
37169;SDS011;23062;13.952;100.608;2023-05-24T01:27:26;21.00;;;15.00;;
37169;SDS011;23062;13.952;100.608;2023-05-24T01:32:01;22.00;;;17.00;;
37169;SDS011;23062;13.952;100.608;2023-05-24T01:36:27;24.00;;;18.00;;
37169;SDS011;23062;13.952;100.608;2023-05-24T01:40:52;23.00;;;17.00;;
37169;SDS011;23062;13.952;100.608;2023-05-24T01:49:50;20.00;;;15.00;;
37169;SDS011;23062;13.952;100.608;2023-05-24T01:54:22;23.00;;;18.00;;
37169;SDS011;23062;13.952;100.608;2023-05-24T01:58:48;21.00;;;16.00;;
37169;SDS011;23062;13.952;100.608;2023-05-24T02:03:24;25.00;;;18.00;;
37169;SDS011;23062;13.952;100.608;2023-05-24T02:07:58;21.00;;;16.00;;
37169;SDS011;23062;13.952;100.608;2023-05-24T02:12:31;21.00;;;16.00;;
37169;SDS011;23062;13.952;100.608;2023-05-24T02:17:08;22.00;;;16.00;;
37169;SDS011;23062;13.952;100.608;2023-05-24T02:21:34;23.00;;;16.00;;
37169;SDS011;23062;13.952;100.608;2023-05-24T02:26:08;23.00;;;17.00;;
37169;SDS011;23062;13.952;100.608;2023-05-24T02:30:37;22.00;;;17.00;;
37169;SDS011;23062;13.952;100.608;2023-05-24T02:35:11;22.00;;;16.00;;
37169;SDS011;23062;13.952;100.608;2023-05-24T02:39:38;22.00;;;16.00;;
37169;SDS011;23062;13.952;100.608;2023-05-24T02:44:12;23.00;;;17.00;;
37169;SDS011;23062;13.952;100.608;2023-05-24T02:48:42;25.00;;;18.00;;
37169;SDS011;23062;13.952;100.608;2023-05-24T02:53:17;18.00;;;14.00;;
37169;SDS011;23062;13.952;100.608;2023-05-24T02:57:45;23.00;;;18.00;;
37169;SDS011;23062;13.952;100.608;2023-05-24T03:02:14;25.00;;;18.00;;
37169;SDS011;23062;13.952;100.608;2023-05-24T03:06:48;26.00;;;19.00;;
37169;SDS011;23062;13.952;100.608;2023-05-24T03:11:22;26.00;;;20.00;;
37169;SDS011;23062;13.952;100.608;2023-05-24T03:15:47;23.00;;;18.00;;
37169;SDS011;23062;13.952;100.608;2023-05-24T03:20:21;25.00;;;18.00;;
37169;SDS011;23062;13.952;100.608;2023-05-24T03:24:46;25.00;;;18.00;;
37169;SDS011;23062;13.952;100.608;2023-05-24T03:29:19;21.00;;;16.00;;
37169;SDS011;23062;13.952;100.608;2023-05-24T03:33:45;27.00;;;19.00;;
37169;SDS011;23062;13.952;100.608;2023-05-24T03:38:13;22.00;;;17.00;;
37169;SDS011;23062;13.952;100.608;2023-05-24T03:42:46;24.00;;;18.00;;
37169;SDS011;23062;13.952;100.608;2023-05-24T03:47:19;24.00;;;18.00;;
37169;SDS011;23062;13.952;100.608;2023-05-24T03:51:51;25.00;;;18.00;;
37169;SDS011;23062;13.952;100.608;2023-05-24T03:56:17;27.00;;;19.00;;
37169;SDS011;23062;13.952;100.608;2023-05-24T04:00:44;26.00;;;19.00;;
37169;SDS011;23062;13.952;100.608;2023-05-24T04:05:10;24.00;;;18.00;;
37169;SDS011;23062;13.952;100.608;2023-05-24T04:09:46;22.00;;;16.00;;
37169;SDS011;23062;13.952;100.608;2023-05-24T04:14:11;23.00;;;18.00;;
37169;SDS011;23062;13.952;100.608;2023-05-24T04:18:37;24.00;;;19.00;;
37169;SDS011;23062;13.952;100.608;2023-05-24T04:23:03;23.00;;;17.00;;
37169;SDS011;23062;13.952;100.608;2023-05-24T04:27:29;24.00;;;18.00;;
37169;SDS011;23062;13.952;100.608;2023-05-24T04:31:58;21.00;;;16.00;;
37169;SDS011;23062;13.952;100.608;2023-05-24T04:36:31;23.00;;;18.00;;
37169;SDS011;23062;13.952;100.608;2023-05-24T04:41:04;23.00;;;16.00;;
37169;SDS011;23062;13.952;100.608;2023-05-24T04:45:36;23.00;;;17.00;;
37169;SDS011;23062;13.952;100.608;2023-05-24T04:50:03;23.00;;;16.00;;
37169;SDS011;23062;13.952;100.608;2023-05-24T04:54:29;29.00;;;21.00;;
37169;SDS011;23062;13.952;100.608;2023-05-24T04:58:55;21.00;;;16.00;;
37169;SDS011;23062;13.952;100.608;2023-05-24T05:03:20;24.00;;;18.00;;
37169;SDS011;23062;13.952;100.608;2023-05-24T05:07:54;24.00;;;18.00;;
37169;SDS011;23062;13.952;100.608;2023-05-24T05:12:20;24.00;;;19.00;;
37169;SDS011;23062;13.952;100.608;2023-05-24T05:16:47;24.00;;;18.00;;
37169;SDS011;23062;13.952;100.608;2023-05-24T05:21:18;27.00;;;19.00;;
37169;SDS011;23062;13.952;100.608;2023-05-24T05:25:43;28.00;;;20.00;;
37169;SDS011;23062;13.952;100.608;2023-05-24T05:30:10;23.00;;;17.00;;
37169;SDS011;23062;13.952;100.608;2023-05-24T05:34:37;26.00;;;19.00;;
37169;SDS011;23062;13.952;100.608;2023-05-24T05:39:04;30.00;;;22.00;;
37169;SDS011;23062;13.952;100.608;2023-05-24T05:43:40;25.00;;;19.00;;
37169;SDS011;23062;13.952;100.608;2023-05-24T05:48:06;27.00;;;21.00;;
37169;SDS011;23062;13.952;100.608;2023-05-24T05:52:38;28.00;;;20.00;;
37169;SDS011;23062;13.952;100.608;2023-05-24T05:57:07;26.00;;;20.00;;
37169;SDS011;23062;13.952;100.608;2023-05-24T06:01:34;26.00;;;19.00;;
37169;SDS011;23062;13.952;100.608;2023-05-24T06:06:00;24.00;;;19.00;;
37169;SDS011;23062;13.952;100.608;2023-05-24T06:10:26;23.00;;;18.00;;
37169;SDS011;23062;13.952;100.608;2023-05-24T06:14:54;24.00;;;18.00;;
37169;SDS011;23062;13.952;100.608;2023-05-24T06:19:28;26.00;;;19.00;;
37169;SDS011;23062;13.952;100.608;2023-05-24T06:24:01;26.00;;;19.00;;
37169;SDS011;23062;13.952;100.608;2023-05-24T06:28:28;26.00;;;19.00;;
37169;SDS011;23062;13.952;100.608;2023-05-24T06:32:54;26.00;;;19.00;;
37169;SDS011;23062;13.952;100.608;2023-05-24T06:37:20;25.00;;;18.00;;
37169;SDS011;23062;13.952;100.608;2023-05-24T06:41:47;27.00;;;20.00;;
37169;SDS011;23062;13.952;100.608;2023-05-24T06:46:20;25.00;;;18.00;;
37169;SDS011;23062;13.952;100.608;2023-05-24T06:50:47;23.00;;;18.00;;
37169;SDS011;23062;13.952;100.608;2023-05-24T06:55:19;27.00;;;20.00;;
37169;SDS011;23062;13.952;100.608;2023-05-24T06:59:45;26.00;;;20.00;;
37169;SDS011;23062;13.952;100.608;2023-05-24T07:04:11;22.00;;;15.87;;
37169;SDS011;23062;13.952;100.608;2023-05-24T07:08:36;26.00;;;20.00;;
37169;SDS011;23062;13.952;100.608;2023-05-24T07:13:05;24.00;;;17.00;;
37169;SDS011;23062;13.952;100.608;2023-05-24T07:17:38;21.00;;;16.00;;
37169;SDS011;23062;13.952;100.608;2023-05-24T07:22:04;22.00;;;15.87;;
37169;SDS011;23062;13.952;100.608;2023-05-24T07:26:30;25.00;;;18.00;;
37169;SDS011;23062;13.952;100.608;2023-05-24T07:30:58;22.00;;;17.00;;
37169;SDS011;23062;13.952;100.608;2023-05-24T07:35:24;22.00;;;17.00;;
37169;SDS011;23062;13.952;100.608;2023-05-24T07:39:50;25.00;;;19.00;;
37169;SDS011;23062;13.952;100.608;2023-05-24T07:44:23;24.00;;;18.00;;
37169;SDS011;23062;13.952;100.608;2023-05-24T07:48:57;28.00;;;22.00;;
37169;SDS011;23062;13.952;100.608;2023-05-24T07:53:23;20.00;;;15.00;;
37169;SDS011;23062;13.952;100.608;2023-05-24T07:57:49;22.00;;;17.00;;
37169;SDS011;23062;13.952;100.608;2023-05-24T08:02:15;25.00;;;19.00;;
37169;SDS011;23062;13.952;100.608;2023-05-24T08:06:46;25.00;;;18.00;;
37169;SDS011;23062;13.952;100.608;2023-05-24T08:11:13;22.00;;;17.00;;
37169;SDS011;23062;13.952;100.608;2023-05-24T08:15:39;21.00;;;16.00;;
37169;SDS011;23062;13.952;100.608;2023-05-24T08:20:08;27.00;;;20.00;;
37169;SDS011;23062;13.952;100.608;2023-05-24T08:24:41;23.00;;;18.00;;
37169;SDS011;23062;13.952;100.608;2023-05-24T08:29:06;21.00;;;16.00;;
37169;SDS011;23062;13.952;100.608;2023-05-24T08:33:33;27.00;;;19.00;;
37169;SDS011;23062;13.952;100.608;2023-05-24T08:37:59;25.00;;;20.00;;
37169;SDS011;23062;13.952;100.608;2023-05-24T08:42:26;25.00;;;19.00;;
37169;SDS011;23062;13.952;100.608;2023-05-24T08:46:52;23.00;;;17.00;;
37169;SDS011;23062;13.952;100.608;2023-05-24T08:51:26;28.00;;;20.00;;
37169;SDS011;23062;13.952;100.608;2023-05-24T08:55:51;24.00;;;19.00;;
37169;SDS011;23062;13.952;100.608;2023-05-24T09:00:19;24.00;;;19.00;;
37169;SDS011;23062;13.952;100.608;2023-05-24T09:04:52;24.00;;;19.00;;
37169;SDS011;23062;13.952;100.608;2023-05-24T09:09:18;22.00;;;16.00;;
37169;SDS011;23062;13.952;100.608;2023-05-24T09:13:46;22.00;;;15.87;;
37169;SDS011;23062;13.952;100.608;2023-05-24T09:18:12;24.00;;;17.73;;
37169;SDS011;23062;13.952;100.608;2023-05-24T09:22:39;23.00;;;17.00;;
37169;SDS011;23062;13.952;100.608;2023-05-24T09:27:08;22.00;;;17.00;;
37169;SDS011;23062;13.952;100.608;2023-05-24T09:31:37;22.00;;;16.00;;
37169;SDS011;23062;13.952;100.608;2023-05-24T09:36:07;28.00;;;20.00;;
37169;SDS011;23062;13.952;100.608;2023-05-24T09:40:33;24.00;;;17.00;;
37169;SDS011;23062;13.952;100.608;2023-05-24T09:45:05;23.00;;;17.00;;
37169;SDS011;23062;13.952;100.608;2023-05-24T09:49:31;22.00;;;17.00;;
37169;SDS011;23062;13.952;100.608;2023-05-24T09:54:05;23.00;;;17.00;;
37169;SDS011;23062;13.952;100.608;2023-05-24T09:58:30;23.00;;;18.00;;
37169;SDS011;23062;13.952;100.608;2023-05-24T10:03:00;24.00;;;18.00;;
37169;SDS011;23062;13.952;100.608;2023-05-24T10:07:33;22.00;;;17.00;;
37169;SDS011;23062;13.952;100.608;2023-05-24T10:12:03;25.00;;;18.00;;
37169;SDS011;23062;13.952;100.608;2023-05-24T10:16:32;24.00;;;18.00;;
37169;SDS011;23062;13.952;100.608;2023-05-24T10:21:00;27.00;;;19.00;;
37169;SDS011;23062;13.952;100.608;2023-05-24T10:25:28;25.00;;;18.00;;
37169;SDS011;23062;13.952;100.608;2023-05-24T10:34:50;29.00;;;21.00;;
37169;SDS011;23062;13.952;100.608;2023-05-24T10:39:23;29.00;;;21.00;;
37169;SDS011;23062;13.952;100.608;2023-05-24T10:43:49;30.00;;;19.07;;
37169;SDS011;23062;13.952;100.608;2023-05-24T10:52:59;32.00;;;24.00;;
37169;SDS011;23062;13.952;100.608;2023-05-24T10:57:39;29.00;;;22.00;;
37169;SDS011;23062;13.952;100.608;2023-05-24T11:02:06;28.00;;;20.00;;
37169;SDS011;23062;13.952;100.608;2023-05-24T11:11:30;31.00;;;23.00;;
37169;SDS011;23062;13.952;100.608;2023-05-24T11:16:06;25.00;;;19.00;;
37169;SDS011;23062;13.952;100.608;2023-05-24T11:20:34;27.00;;;20.00;;
37169;SDS011;23062;13.952;100.608;2023-05-24T11:24:59;24.00;;;18.00;;
37169;SDS011;23062;13.952;100.608;2023-05-24T11:29:27;26.00;;;19.00;;
37169;SDS011;23062;13.952;100.608;2023-05-24T11:33:53;25.00;;;18.00;;
37169;SDS011;23062;13.952;100.608;2023-05-24T11:38:21;28.00;;;19.60;;
37169;SDS011;23062;13.952;100.608;2023-05-24T11:42:48;24.00;;;19.00;;
37169;SDS011;23062;13.952;100.608;2023-05-24T11:47:16;25.00;;;19.00;;
37169;SDS011;23062;13.952;100.608;2023-05-24T11:51:46;26.00;;;20.00;;
37169;SDS011;23062;13.952;100.608;2023-05-24T11:56:13;19.00;;;13.00;;
37169;SDS011;23062;13.952;100.608;2023-05-24T12:00:40;13.00;;;9.00;;
37169;SDS011;23062;13.952;100.608;2023-05-24T12:05:06;13.00;;;9.00;;
37169;SDS011;23062;13.952;100.608;2023-05-24T12:09:36;10.00;;;7.00;;
37169;SDS011;23062;13.952;100.608;2023-05-24T12:14:04;7.00;;;5.00;;
37169;SDS011;23062;13.952;100.608;2023-05-24T12:18:32;7.00;;;5.00;;
37169;SDS011;23062;13.952;100.608;2023-05-24T12:22:59;9.00;;;6.00;;
37169;SDS011;23062;13.952;100.608;2023-05-24T12:27:27;7.00;;;5.00;;
37169;SDS011;23062;13.952;100.608;2023-05-24T12:31:54;10.00;;;7.00;;
37169;SDS011;23062;13.952;100.608;2023-05-24T12:36:20;9.00;;;6.00;;
37169;SDS011;23062;13.952;100.608;2023-05-24T12:40:49;15.00;;;10.00;;
37169;SDS011;23062;13.952;100.608;2023-05-24T12:45:17;11.00;;;7.00;;
37169;SDS011;23062;13.952;100.608;2023-05-24T12:49:46;16.00;;;11.00;;
37169;SDS011;23062;13.952;100.608;2023-05-24T12:54:12;12.00;;;9.00;;
37169;SDS011;23062;13.952;100.608;2023-05-24T12:58:46;12.00;;;8.00;;
37169;SDS011;23062;13.952;100.608;2023-05-24T13:03:12;11.00;;;7.00;;
37169;SDS011;23062;13.952;100.608;2023-05-24T13:07:45;14.00;;;10.00;;
37169;SDS011;23062;13.952;100.608;2023-05-24T13:12:14;16.00;;;11.00;;
37169;SDS011;23062;13.952;100.608;2023-05-24T13:16:42;23.00;;;16.00;;
37169;SDS011;23062;13.952;100.608;2023-05-24T13:21:13;17.00;;;13.00;;
37169;SDS011;23062;13.952;100.608;2023-05-24T13:25:43;16.00;;;12.00;;
37169;SDS011;23062;13.952;100.608;2023-05-24T13:30:09;15.00;;;12.00;;
37169;SDS011;23062;13.952;100.608;2023-05-24T13:34:46;21.00;;;16.00;;
37169;SDS011;23062;13.952;100.608;2023-05-24T13:39:15;17.00;;;12.00;;
37169;SDS011;23062;13.952;100.608;2023-05-24T13:43:41;9.00;;;7.00;;
37169;SDS011;23062;13.952;100.608;2023-05-24T13:48:17;8.00;;;4.67;;
37169;SDS011;23062;13.952;100.608;2023-05-24T13:52:44;7.00;;;5.00;;
37169;SDS011;23062;13.952;100.608;2023-05-24T13:57:10;6.00;;;4.00;;
37169;SDS011;23062;13.952;100.608;2023-05-24T14:01:39;6.00;;;4.00;;
37169;SDS011;23062;13.952;100.608;2023-05-24T14:06:08;5.00;;;3.00;;
37169;SDS011;23062;13.952;100.608;2023-05-24T14:10:36;7.00;;;4.00;;
37169;SDS011;23062;13.952;100.608;2023-05-24T14:15:01;4.00;;;2.80;;
37169;SDS011;23062;13.952;100.608;2023-05-24T14:19:29;5.00;;;3.00;;
37169;SDS011;23062;13.952;100.608;2023-05-24T14:23:56;7.00;;;5.00;;
37169;SDS011;23062;13.952;100.608;2023-05-24T14:28:22;6.00;;;4.00;;
37169;SDS011;23062;13.952;100.608;2023-05-24T14:32:56;6.00;;;4.00;;
37169;SDS011;23062;13.952;100.608;2023-05-24T14:37:23;6.00;;;4.00;;
37169;SDS011;23062;13.952;100.608;2023-05-24T14:41:49;7.00;;;5.00;;
37169;SDS011;23062;13.952;100.608;2023-05-24T14:46:21;8.00;;;5.00;;
37169;SDS011;23062;13.952;100.608;2023-05-24T14:50:47;7.00;;;5.00;;
37169;SDS011;23062;13.952;100.608;2023-05-24T14:55:13;9.00;;;6.00;;
37169;SDS011;23062;13.952;100.608;2023-05-24T14:59:41;7.00;;;5.00;;
37169;SDS011;23062;13.952;100.608;2023-05-24T15:04:06;8.00;;;6.00;;
37169;SDS011;23062;13.952;100.608;2023-05-24T15:08:34;11.00;;;8.00;;
37169;SDS011;23062;13.952;100.608;2023-05-24T15:13:07;11.00;;;8.00;;
37169;SDS011;23062;13.952;100.608;2023-05-24T15:17:34;11.00;;;8.00;;
37169;SDS011;23062;13.952;100.608;2023-05-24T15:22:01;12.00;;;9.00;;
37169;SDS011;23062;13.952;100.608;2023-05-24T15:26:27;10.00;;;7.00;;
37169;SDS011;23062;13.952;100.608;2023-05-24T15:30:58;11.00;;;8.00;;
37169;SDS011;23062;13.952;100.608;2023-05-24T15:35:25;13.00;;;9.00;;
37169;SDS011;23062;13.952;100.608;2023-05-24T15:39:51;14.00;;;10.00;;
37169;SDS011;23062;13.952;100.608;2023-05-24T15:44:16;13.00;;;9.00;;
37169;SDS011;23062;13.952;100.608;2023-05-24T15:48:44;12.00;;;9.00;;
37169;SDS011;23062;13.952;100.608;2023-05-24T15:53:11;12.00;;;9.00;;
37169;SDS011;23062;13.952;100.608;2023-05-24T15:57:39;12.00;;;9.00;;
37169;SDS011;23062;13.952;100.608;2023-05-24T16:02:07;14.00;;;10.00;;
37169;SDS011;23062;13.952;100.608;2023-05-24T16:06:35;13.00;;;10.00;;
37169;SDS011;23062;13.952;100.608;2023-05-24T16:11:03;13.00;;;10.00;;
37169;SDS011;23062;13.952;100.608;2023-05-24T16:15:30;15.00;;;11.00;;
37169;SDS011;23062;13.952;100.608;2023-05-24T16:20:05;16.00;;;11.00;;
37169;SDS011;23062;13.952;100.608;2023-05-24T16:24:32;15.00;;;11.00;;
37169;SDS011;23062;13.952;100.608;2023-05-24T16:29:00;15.00;;;11.00;;
37169;SDS011;23062;13.952;100.608;2023-05-24T16:33:27;14.00;;;10.00;;
37169;SDS011;23062;13.952;100.608;2023-05-24T16:38:00;18.00;;;13.00;;
37169;SDS011;23062;13.952;100.608;2023-05-24T16:42:28;16.00;;;12.00;;
37169;SDS011;23062;13.952;100.608;2023-05-24T16:46:54;18.00;;;13.00;;
37169;SDS011;23062;13.952;100.608;2023-05-24T16:51:20;13.00;;;10.00;;
37169;SDS011;23062;13.952;100.608;2023-05-24T16:55:53;21.00;;;15.00;;
37169;SDS011;23062;13.952;100.608;2023-05-24T17:00:26;17.00;;;13.00;;
37169;SDS011;23062;13.952;100.608;2023-05-24T17:04:59;17.00;;;13.00;;
37169;SDS011;23062;13.952;100.608;2023-05-24T17:09:24;20.00;;;14.00;;
37169;SDS011;23062;13.952;100.608;2023-05-24T17:13:50;16.00;;;12.00;;
37169;SDS011;23062;13.952;100.608;2023-05-24T17:18:17;18.00;;;13.00;;
37169;SDS011;23062;13.952;100.608;2023-05-24T17:22:44;17.00;;;13.00;;
37169;SDS011;23062;13.952;100.608;2023-05-24T17:27:10;22.00;;;16.00;;
37169;SDS011;23062;13.952;100.608;2023-05-24T17:31:44;21.00;;;15.00;;
37169;SDS011;23062;13.952;100.608;2023-05-24T17:36:10;22.00;;;16.00;;
37169;SDS011;23062;13.952;100.608;2023-05-24T17:40:38;25.00;;;18.00;;
37169;SDS011;23062;13.952;100.608;2023-05-24T17:45:07;28.00;;;20.00;;
37169;SDS011;23062;13.952;100.608;2023-05-24T17:49:36;34.00;;;26.00;;
37169;SDS011;23062;13.952;100.608;2023-05-24T17:54:05;32.00;;;25.00;;
37169;SDS011;23062;13.952;100.608;2023-05-24T17:58:31;37.00;;;27.07;;
37169;SDS011;23062;13.952;100.608;2023-05-24T18:03:03;37.00;;;27.00;;
37169;SDS011;23062;13.952;100.608;2023-05-24T18:07:30;34.00;;;26.00;;
37169;SDS011;23062;13.952;100.608;2023-05-24T18:11:58;37.00;;;28.00;;
37169;SDS011;23062;13.952;100.608;2023-05-24T18:16:24;37.00;;;29.00;;
37169;SDS011;23062;13.952;100.608;2023-05-24T18:20:50;41.00;;;31.00;;
37169;SDS011;23062;13.952;100.608;2023-05-24T18:25:21;40.00;;;30.00;;
37169;SDS011;23062;13.952;100.608;2023-05-24T18:29:55;40.00;;;29.00;;
37169;SDS011;23062;13.952;100.608;2023-05-24T18:34:28;44.00;;;32.00;;
37169;SDS011;23062;13.952;100.608;2023-05-24T18:39:02;38.00;;;28.00;;
37169;SDS011;23062;13.952;100.608;2023-05-24T18:43:28;38.00;;;28.00;;
37169;SDS011;23062;13.952;100.608;2023-05-24T18:48:01;37.00;;;28.00;;
37169;SDS011;23062;13.952;100.608;2023-05-24T18:52:30;40.00;;;30.00;;
37169;SDS011;23062;13.952;100.608;2023-05-24T18:56:56;41.00;;;30.00;;
37169;SDS011;23062;13.952;100.608;2023-05-24T19:01:28;35.00;;;26.00;;
37169;SDS011;23062;13.952;100.608;2023-05-24T19:06:03;31.00;;;24.00;;
37169;SDS011;23062;13.952;100.608;2023-05-24T19:10:31;32.00;;;24.00;;
37169;SDS011;23062;13.952;100.608;2023-05-24T19:14:58;32.00;;;23.00;;
37169;SDS011;23062;13.952;100.608;2023-05-24T19:19:25;31.00;;;23.00;;
37169;SDS011;23062;13.952;100.608;2023-05-24T19:23:53;27.00;;;20.00;;
37169;SDS011;23062;13.952;100.608;2023-05-24T19:28:21;25.00;;;20.00;;
37169;SDS011;23062;13.952;100.608;2023-05-24T19:32:47;29.00;;;22.00;;
37169;SDS011;23062;13.952;100.608;2023-05-24T19:37:13;30.00;;;23.00;;
37169;SDS011;23062;13.952;100.608;2023-05-24T19:41:39;27.00;;;20.00;;
37169;SDS011;23062;13.952;100.608;2023-05-24T19:46:06;29.00;;;23.00;;
37169;SDS011;23062;13.952;100.608;2023-05-24T19:50:39;26.00;;;20.00;;
37169;SDS011;23062;13.952;100.608;2023-05-24T19:55:04;30.00;;;22.00;;
37169;SDS011;23062;13.952;100.608;2023-05-24T19:59:35;29.00;;;22.00;;
37169;SDS011;23062;13.952;100.608;2023-05-24T20:04:10;30.00;;;22.00;;
37169;SDS011;23062;13.952;100.608;2023-05-24T20:08:42;28.00;;;21.00;;
37169;SDS011;23062;13.952;100.608;2023-05-24T20:13:15;33.00;;;24.00;;
37169;SDS011;23062;13.952;100.608;2023-05-24T20:17:44;26.00;;;20.00;;
37169;SDS011;23062;13.952;100.608;2023-05-24T20:22:10;25.00;;;20.00;;
37169;SDS011;23062;13.952;100.608;2023-05-24T20:26:37;29.00;;;22.00;;
37169;SDS011;23062;13.952;100.608;2023-05-24T20:31:11;31.00;;;23.00;;
37169;SDS011;23062;13.952;100.608;2023-05-24T20:35:37;31.00;;;24.00;;
37169;SDS011;23062;13.952;100.608;2023-05-24T20:40:06;31.00;;;23.00;;
37169;SDS011;23062;13.952;100.608;2023-05-24T20:44:32;31.00;;;23.00;;
37169;SDS011;23062;13.952;100.608;2023-05-24T20:48:59;29.00;;;22.00;;
37169;SDS011;23062;13.952;100.608;2023-05-24T20:53:24;30.00;;;22.00;;
37169;SDS011;23062;13.952;100.608;2023-05-24T20:57:52;30.00;;;23.00;;
37169;SDS011;23062;13.952;100.608;2023-05-24T21:02:26;31.00;;;23.00;;
37169;SDS011;23062;13.952;100.608;2023-05-24T21:06:54;38.00;;;28.00;;
37169;SDS011;23062;13.952;100.608;2023-05-24T21:11:29;35.00;;;27.00;;
37169;SDS011;23062;13.952;100.608;2023-05-24T21:15:56;35.00;;;25.00;;
37169;SDS011;23062;13.952;100.608;2023-05-24T21:20:21;31.00;;;22.00;;
37169;SDS011;23062;13.952;100.608;2023-05-24T21:24:54;25.00;;;19.00;;
37169;SDS011;23062;13.952;100.608;2023-05-24T21:29:20;29.00;;;22.00;;
37169;SDS011;23062;13.952;100.608;2023-05-24T21:33:46;29.00;;;21.00;;
37169;SDS011;23062;13.952;100.608;2023-05-24T21:38:11;26.00;;;19.00;;
37169;SDS011;23062;13.952;100.608;2023-05-24T21:42:37;23.00;;;18.00;;
37169;SDS011;23062;13.952;100.608;2023-05-24T21:47:02;24.00;;;18.00;;
37169;SDS011;23062;13.952;100.608;2023-05-24T21:51:31;30.00;;;22.00;;
37169;SDS011;23062;13.952;100.608;2023-05-24T21:56:06;36.00;;;27.00;;
37169;SDS011;23062;13.952;100.608;2023-05-24T22:00:33;35.00;;;27.00;;
37169;SDS011;23062;13.952;100.608;2023-05-24T22:05:03;43.00;;;32.00;;
37169;SDS011;23062;13.952;100.608;2023-05-24T22:09:30;49.00;;;38.00;;
37169;SDS011;23062;13.952;100.608;2023-05-24T22:13:56;47.00;;;35.00;;
37169;SDS011;23062;13.952;100.608;2023-05-24T22:18:23;41.00;;;28.00;;
37169;SDS011;23062;13.952;100.608;2023-05-24T22:22:51;41.00;;;32.00;;
37169;SDS011;23062;13.952;100.608;2023-05-24T22:27:16;42.00;;;33.00;;
37169;SDS011;23062;13.952;100.608;2023-05-24T22:31:44;37.00;;;29.00;;
37169;SDS011;23062;13.952;100.608;2023-05-24T22:36:09;32.00;;;25.00;;
37169;SDS011;23062;13.952;100.608;2023-05-24T22:40:37;56.00;;;41.00;;
37169;SDS011;23062;13.952;100.608;2023-05-24T22:45:03;38.00;;;28.00;;
37169;SDS011;23062;13.952;100.608;2023-05-24T22:49:30;28.00;;;22.00;;
37169;SDS011;23062;13.952;100.608;2023-05-24T22:54:02;26.00;;;20.00;;
37169;SDS011;23062;13.952;100.608;2023-05-24T22:58:29;23.00;;;18.00;;
37169;SDS011;23062;13.952;100.608;2023-05-24T23:03:02;26.00;;;20.00;;
37169;SDS011;23062;13.952;100.608;2023-05-24T23:07:28;26.00;;;20.00;;
37169;SDS011;23062;13.952;100.608;2023-05-24T23:12:02;26.00;;;19.00;;
37169;SDS011;23062;13.952;100.608;2023-05-24T23:16:30;25.00;;;19.00;;
37169;SDS011;23062;13.952;100.608;2023-05-24T23:20:58;25.00;;;19.00;;
37169;SDS011;23062;13.952;100.608;2023-05-24T23:25:24;28.00;;;21.00;;
37169;SDS011;23062;13.952;100.608;2023-05-24T23:29:50;25.00;;;18.00;;
37169;SDS011;23062;13.952;100.608;2023-05-24T23:34:17;22.00;;;17.00;;
37169;SDS011;23062;13.952;100.608;2023-05-24T23:38:43;25.00;;;20.00;;
37169;SDS011;23062;13.952;100.608;2023-05-24T23:43:11;30.00;;;22.00;;
37169;SDS011;23062;13.952;100.608;2023-05-24T23:47:37;23.00;;;17.00;;
37169;SDS011;23062;13.952;100.608;2023-05-24T23:52:03;27.00;;;19.00;;
37169;SDS011;23062;13.952;100.608;2023-05-24T23:56:36;25.00;;;18.00;;
